< Typhoon 200101 2001 Season Typhoon 200103 >
Typhoon 200102 (CHEBI)
General InformationTrack Information on Google MapsDetailed Wind InformationList of All Images || Disaster Info.ResourceGoogle EarthGE AnimationAtom FeedGeoJSON
Detalied Best Track (Time Zone = UTC)
Year Month Day Hour Lat. Long. Pressure (hPa) Wind (kt) Class Image Chart
2001 6 19 18 11.9 136.4 1004 0 2 Image Chart
2001 6 20 00 12.1 134.9 1002 0 2 Image Chart
2001 6 20 06 13.0 133.4 996 35 3 Image Chart
2001 6 20 12 13.7 131.4 996 35 3 Image Chart
2001 6 20 18 14.0 129.1 992 40 3 Image Chart
2001 6 21 00 14.3 127.7 990 45 3 Image Chart
2001 6 21 06 15.2 127.2 990 45 3 Image Chart
2001 6 21 12 16.0 125.9 985 50 4 Image Chart
2001 6 21 18 17.2 124.8 980 50 4 Image Chart
2001 6 22 00 18.4 123.6 980 55 4 Image Chart
2001 6 22 06 19.5 122.2 970 60 4 Image Chart
2001 6 22 12 20.5 121.2 970 60 4 Image Chart
2001 6 22 18 21.0 119.9 965 65 5 Image Chart
2001 6 23 00 22.2 119.5 965 65 5 Image Chart
2001 6 23 06 23.4 119.2 965 65 5 Image Chart
2001 6 23 12 24.8 119.4 985 50 4 Image Chart
2001 6 23 18 26.5 119.7 994 40 3 Image Chart
2001 6 24 00 28.1 120.6 998 0 2 Image Chart
2001 6 24 06 30.1 122.1 1000 0 2 Image Chart
2001 6 24 12 32.6 124.4 1000 0 6 Image Chart
2001 6 24 18 35.6 128.7 1002 0 6 Image Chart
2001 6 25 00 37.1 131.9 1002 0 6 Image Chart
2001 6 25 06 37.6 132.9 1002 0 6 Image Chart
2001 6 25 12 38.2 133.8 1004 0 6 Image Chart
2001 6 25 18 38.7 134.5 1002 0 6 Image Chart
Japan Meteorological Agency Best Track Data | Correction Date : 2002-01-24
< Typhoon 200101 2001 Season Typhoon 200103 >

Help